sensor_id;sensor_type;location;lat;lon;timestamp;P1;durP1;ratioP1;P2;durP2;ratioP2
20042;SDS011;10182;52.896;6.496;2023-07-02T00:00:21;15.10;;;5.97;;
20042;SDS011;10182;52.896;6.496;2023-07-02T00:05:23;12.90;;;5.70;;
20042;SDS011;10182;52.896;6.496;2023-07-02T00:10:26;12.03;;;5.83;;
20042;SDS011;10182;52.896;6.496;2023-07-02T00:15:27;11.03;;;6.27;;
20042;SDS011;10182;52.896;6.496;2023-07-02T00:20:29;11.37;;;6.67;;
20042;SDS011;10182;52.896;6.496;2023-07-02T00:25:36;12.50;;;7.00;;
20042;SDS011;10182;52.896;6.496;2023-07-02T00:30:38;16.10;;;6.93;;
20042;SDS011;10182;52.896;6.496;2023-07-02T00:35:39;15.23;;;7.60;;
20042;SDS011;10182;52.896;6.496;2023-07-02T00:40:42;15.10;;;7.97;;
20042;SDS011;10182;52.896;6.496;2023-07-02T00:45:44;14.33;;;8.00;;
20042;SDS011;10182;52.896;6.496;2023-07-02T00:50:46;18.77;;;7.93;;
20042;SDS011;10182;52.896;6.496;2023-07-02T00:55:49;18.87;;;8.53;;
20042;SDS011;10182;52.896;6.496;2023-07-02T01:00:51;17.60;;;7.70;;
20042;SDS011;10182;52.896;6.496;2023-07-02T01:05:53;16.23;;;8.13;;
20042;SDS011;10182;52.896;6.496;2023-07-02T01:10:56;16.20;;;7.83;;
20042;SDS011;10182;52.896;6.496;2023-07-02T01:16:00;20.20;;;8.83;;
20042;SDS011;10182;52.896;6.496;2023-07-02T01:21:03;19.40;;;8.43;;
20042;SDS011;10182;52.896;6.496;2023-07-02T01:26:06;20.20;;;8.77;;
20042;SDS011;10182;52.896;6.496;2023-07-02T01:31:07;22.83;;;8.37;;
20042;SDS011;10182;52.896;6.496;2023-07-02T01:36:11;17.80;;;9.30;;
20042;SDS011;10182;52.896;6.496;2023-07-02T01:41:12;23.73;;;9.90;;
20042;SDS011;10182;52.896;6.496;2023-07-02T01:46:14;17.63;;;8.93;;
20042;SDS011;10182;52.896;6.496;2023-07-02T01:51:17;19.37;;;9.30;;
20042;SDS011;10182;52.896;6.496;2023-07-02T01:56:19;21.93;;;9.17;;
20042;SDS011;10182;52.896;6.496;2023-07-02T02:01:20;20.97;;;9.90;;
20042;SDS011;10182;52.896;6.496;2023-07-02T02:06:23;18.20;;;9.50;;
20042;SDS011;10182;52.896;6.496;2023-07-02T02:11:25;21.57;;;9.67;;
20042;SDS011;10182;52.896;6.496;2023-07-02T02:16:27;22.13;;;9.27;;
20042;SDS011;10182;52.896;6.496;2023-07-02T02:21:31;19.07;;;9.23;;
20042;SDS011;10182;52.896;6.496;2023-07-02T02:26:33;22.40;;;10.07;;
20042;SDS011;10182;52.896;6.496;2023-07-02T02:31:34;20.40;;;9.60;;
20042;SDS011;10182;52.896;6.496;2023-07-02T02:36:37;22.30;;;10.43;;
20042;SDS011;10182;52.896;6.496;2023-07-02T02:41:39;24.57;;;10.27;;
20042;SDS011;10182;52.896;6.496;2023-07-02T02:46:41;21.43;;;10.07;;
20042;SDS011;10182;52.896;6.496;2023-07-02T02:51:44;19.80;;;9.97;;
20042;SDS011;10182;52.896;6.496;2023-07-02T02:56:45;21.70;;;10.20;;
20042;SDS011;10182;52.896;6.496;2023-07-02T03:01:47;27.90;;;10.67;;
20042;SDS011;10182;52.896;6.496;2023-07-02T03:06:50;29.17;;;11.03;;
20042;SDS011;10182;52.896;6.496;2023-07-02T03:11:53;20.03;;;9.47;;
20042;SDS011;10182;52.896;6.496;2023-07-02T03:16:54;29.70;;;11.07;;
20042;SDS011;10182;52.896;6.496;2023-07-02T03:21:57;19.73;;;10.30;;
20042;SDS011;10182;52.896;6.496;2023-07-02T03:26:59;26.50;;;11.03;;
20042;SDS011;10182;52.896;6.496;2023-07-02T03:32:00;25.53;;;11.30;;
20042;SDS011;10182;52.896;6.496;2023-07-02T03:37:04;23.90;;;11.80;;
20042;SDS011;10182;52.896;6.496;2023-07-02T03:42:07;26.67;;;11.47;;
20042;SDS011;10182;52.896;6.496;2023-07-02T03:47:09;24.47;;;11.33;;
20042;SDS011;10182;52.896;6.496;2023-07-02T03:52:13;25.53;;;11.13;;
20042;SDS011;10182;52.896;6.496;2023-07-02T03:57:15;24.23;;;10.63;;
20042;SDS011;10182;52.896;6.496;2023-07-02T04:02:17;27.17;;;10.60;;
20042;SDS011;10182;52.896;6.496;2023-07-02T04:07:20;28.30;;;10.87;;
20042;SDS011;10182;52.896;6.496;2023-07-02T04:12:21;24.93;;;9.60;;
20042;SDS011;10182;52.896;6.496;2023-07-02T04:17:23;22.40;;;10.37;;
20042;SDS011;10182;52.896;6.496;2023-07-02T04:22:26;22.47;;;10.67;;
20042;SDS011;10182;52.896;6.496;2023-07-02T04:27:28;22.63;;;9.73;;
20042;SDS011;10182;52.896;6.496;2023-07-02T04:32:29;21.03;;;9.87;;
20042;SDS011;10182;52.896;6.496;2023-07-02T04:37:32;24.73;;;10.63;;
20042;SDS011;10182;52.896;6.496;2023-07-02T04:42:35;23.27;;;10.57;;
20042;SDS011;10182;52.896;6.496;2023-07-02T04:47:37;21.07;;;10.57;;
20042;SDS011;10182;52.896;6.496;2023-07-02T04:52:40;22.27;;;10.40;;
20042;SDS011;10182;52.896;6.496;2023-07-02T04:57:42;21.97;;;10.00;;
20042;SDS011;10182;52.896;6.496;2023-07-02T05:02:44;22.83;;;10.30;;
20042;SDS011;10182;52.896;6.496;2023-07-02T05:07:47;22.43;;;10.20;;
20042;SDS011;10182;52.896;6.496;2023-07-02T05:12:49;23.97;;;9.70;;
20042;SDS011;10182;52.896;6.496;2023-07-02T05:17:50;20.77;;;10.27;;
20042;SDS011;10182;52.896;6.496;2023-07-02T05:22:54;17.93;;;9.63;;
20042;SDS011;10182;52.896;6.496;2023-07-02T05:27:55;20.73;;;9.43;;
20042;SDS011;10182;52.896;6.496;2023-07-02T05:32:57;23.17;;;9.20;;
20042;SDS011;10182;52.896;6.496;2023-07-02T05:38:00;18.37;;;7.87;;
20042;SDS011;10182;52.896;6.496;2023-07-02T05:43:01;24.30;;;9.10;;
20042;SDS011;10182;52.896;6.496;2023-07-02T05:48:03;17.90;;;8.40;;
20042;SDS011;10182;52.896;6.496;2023-07-02T05:53:07;20.53;;;8.57;;
20042;SDS011;10182;52.896;6.496;2023-07-02T05:58:10;20.60;;;9.07;;
20042;SDS011;10182;52.896;6.496;2023-07-02T06:03:12;22.80;;;8.17;;
20042;SDS011;10182;52.896;6.496;2023-07-02T06:08:20;21.57;;;8.17;;
20042;SDS011;10182;52.896;6.496;2023-07-02T06:13:22;17.27;;;8.23;;
20042;SDS011;10182;52.896;6.496;2023-07-02T06:18:23;18.97;;;7.87;;
20042;SDS011;10182;52.896;6.496;2023-07-02T06:23:26;21.47;;;9.13;;
20042;SDS011;10182;52.896;6.496;2023-07-02T06:28:28;16.13;;;7.90;;
20042;SDS011;10182;52.896;6.496;2023-07-02T06:33:30;16.33;;;7.50;;
20042;SDS011;10182;52.896;6.496;2023-07-02T06:38:33;19.90;;;7.97;;
20042;SDS011;10182;52.896;6.496;2023-07-02T06:43:35;22.17;;;8.30;;
20042;SDS011;10182;52.896;6.496;2023-07-02T06:48:37;19.27;;;7.20;;
20042;SDS011;10182;52.896;6.496;2023-07-02T06:53:40;20.03;;;7.33;;
20042;SDS011;10182;52.896;6.496;2023-07-02T06:58:41;18.10;;;6.90;;
20042;SDS011;10182;52.896;6.496;2023-07-02T07:03:43;17.97;;;6.77;;
20042;SDS011;10182;52.896;6.496;2023-07-02T07:08:46;13.57;;;6.73;;
20042;SDS011;10182;52.896;6.496;2023-07-02T07:13:48;13.77;;;5.97;;
20042;SDS011;10182;52.896;6.496;2023-07-02T07:18:50;14.63;;;5.53;;
20042;SDS011;10182;52.896;6.496;2023-07-02T07:23:53;12.57;;;5.30;;
20042;SDS011;10182;52.896;6.496;2023-07-02T07:28:55;13.93;;;5.23;;
20042;SDS011;10182;52.896;6.496;2023-07-02T07:33:57;13.23;;;5.07;;
20042;SDS011;10182;52.896;6.496;2023-07-02T07:39:01;10.13;;;4.73;;
20042;SDS011;10182;52.896;6.496;2023-07-02T07:44:02;12.77;;;4.40;;
20042;SDS011;10182;52.896;6.496;2023-07-02T07:49:04;12.63;;;4.73;;
20042;SDS011;10182;52.896;6.496;2023-07-02T07:54:07;12.17;;;4.93;;
20042;SDS011;10182;52.896;6.496;2023-07-02T07:59:09;11.00;;;4.70;;
20042;SDS011;10182;52.896;6.496;2023-07-02T08:04:11;12.17;;;4.70;;
20042;SDS011;10182;52.896;6.496;2023-07-02T08:09:14;10.77;;;4.30;;
20042;SDS011;10182;52.896;6.496;2023-07-02T08:14:16;12.10;;;4.30;;
20042;SDS011;10182;52.896;6.496;2023-07-02T08:19:18;8.23;;;4.03;;
20042;SDS011;10182;52.896;6.496;2023-07-02T08:24:22;8.87;;;3.47;;
20042;SDS011;10182;52.896;6.496;2023-07-02T08:29:24;8.63;;;3.60;;
20042;SDS011;10182;52.896;6.496;2023-07-02T08:34:26;14.27;;;4.53;;
20042;SDS011;10182;52.896;6.496;2023-07-02T08:39:29;7.33;;;3.80;;
20042;SDS011;10182;52.896;6.496;2023-07-02T08:44:31;15.00;;;5.10;;
20042;SDS011;10182;52.896;6.496;2023-07-02T08:49:32;12.07;;;4.97;;
20042;SDS011;10182;52.896;6.496;2023-07-02T08:54:36;8.53;;;4.60;;
20042;SDS011;10182;52.896;6.496;2023-07-02T08:59:37;10.70;;;4.37;;
20042;SDS011;10182;52.896;6.496;2023-07-02T09:04:39;10.67;;;4.97;;
20042;SDS011;10182;52.896;6.496;2023-07-02T09:09:45;12.80;;;4.77;;
20042;SDS011;10182;52.896;6.496;2023-07-02T09:14:53;15.50;;;5.77;;
20042;SDS011;10182;52.896;6.496;2023-07-02T09:19:56;12.13;;;5.30;;
20042;SDS011;10182;52.896;6.496;2023-07-02T09:25:02;10.00;;;4.83;;
20042;SDS011;10182;52.896;6.496;2023-07-02T09:30:08;7.13;;;3.77;;
20042;SDS011;10182;52.896;6.496;2023-07-02T09:35:12;8.73;;;4.00;;
20042;SDS011;10182;52.896;6.496;2023-07-02T09:40:15;11.73;;;5.13;;
20042;SDS011;10182;52.896;6.496;2023-07-02T09:45:18;13.33;;;4.57;;
20042;SDS011;10182;52.896;6.496;2023-07-02T09:50:20;12.10;;;4.17;;
20042;SDS011;10182;52.896;6.496;2023-07-02T09:55:26;14.03;;;4.30;;
20042;SDS011;10182;52.896;6.496;2023-07-02T10:00:28;9.43;;;3.97;;
20042;SDS011;10182;52.896;6.496;2023-07-02T10:05:30;10.70;;;4.27;;
20042;SDS011;10182;52.896;6.496;2023-07-02T10:10:34;10.17;;;4.87;;
20042;SDS011;10182;52.896;6.496;2023-07-02T10:15:35;8.97;;;4.03;;
20042;SDS011;10182;52.896;6.496;2023-07-02T10:20:40;18.47;;;4.83;;
20042;SDS011;10182;52.896;6.496;2023-07-02T10:25:43;13.27;;;4.80;;
20042;SDS011;10182;52.896;6.496;2023-07-02T10:30:45;11.63;;;4.63;;
20042;SDS011;10182;52.896;6.496;2023-07-02T10:35:47;12.20;;;4.17;;
20042;SDS011;10182;52.896;6.496;2023-07-02T10:40:55;9.03;;;4.30;;
20042;SDS011;10182;52.896;6.496;2023-07-02T10:45:57;10.17;;;4.50;;
20042;SDS011;10182;52.896;6.496;2023-07-02T10:51:10;14.43;;;4.63;;
20042;SDS011;10182;52.896;6.496;2023-07-02T10:56:16;9.50;;;3.37;;
20042;SDS011;10182;52.896;6.496;2023-07-02T11:01:24;12.13;;;4.60;;
20042;SDS011;10182;52.896;6.496;2023-07-02T11:06:27;9.10;;;3.53;;
20042;SDS011;10182;52.896;6.496;2023-07-02T11:11:30;12.30;;;4.30;;
20042;SDS011;10182;52.896;6.496;2023-07-02T11:16:32;8.77;;;4.17;;
20042;SDS011;10182;52.896;6.496;2023-07-02T11:21:36;7.30;;;3.03;;
20042;SDS011;10182;52.896;6.496;2023-07-02T11:26:40;9.37;;;3.90;;
20042;SDS011;10182;52.896;6.496;2023-07-02T11:31:43;11.63;;;4.23;;
20042;SDS011;10182;52.896;6.496;2023-07-02T11:36:45;8.63;;;3.90;;
20042;SDS011;10182;52.896;6.496;2023-07-02T11:41:50;11.30;;;3.57;;
20042;SDS011;10182;52.896;6.496;2023-07-02T11:46:52;9.20;;;3.73;;
20042;SDS011;10182;52.896;6.496;2023-07-02T11:51:53;13.13;;;4.27;;
20042;SDS011;10182;52.896;6.496;2023-07-02T11:56:56;10.50;;;3.50;;
20042;SDS011;10182;52.896;6.496;2023-07-02T12:01:58;8.10;;;3.53;;
20042;SDS011;10182;52.896;6.496;2023-07-02T12:07:00;6.60;;;3.10;;
20042;SDS011;10182;52.896;6.496;2023-07-02T12:12:05;6.80;;;3.23;;
20042;SDS011;10182;52.896;6.496;2023-07-02T12:17:07;6.83;;;3.17;;
20042;SDS011;10182;52.896;6.496;2023-07-02T12:22:09;9.27;;;3.73;;
20042;SDS011;10182;52.896;6.496;2023-07-02T12:27:12;5.87;;;3.43;;
20042;SDS011;10182;52.896;6.496;2023-07-02T12:32:14;7.87;;;3.13;;
20042;SDS011;10182;52.896;6.496;2023-07-02T12:37:15;10.00;;;2.77;;
20042;SDS011;10182;52.896;6.496;2023-07-02T12:42:20;7.73;;;3.37;;
20042;SDS011;10182;52.896;6.496;2023-07-02T12:47:22;9.07;;;3.40;;
20042;SDS011;10182;52.896;6.496;2023-07-02T12:52:23;10.50;;;3.67;;
20042;SDS011;10182;52.896;6.496;2023-07-02T12:57:26;10.50;;;4.07;;
20042;SDS011;10182;52.896;6.496;2023-07-02T13:02:28;9.30;;;3.93;;
20042;SDS011;10182;52.896;6.496;2023-07-02T13:07:30;11.10;;;4.07;;
20042;SDS011;10182;52.896;6.496;2023-07-02T13:12:33;9.33;;;4.20;;
20042;SDS011;10182;52.896;6.496;2023-07-02T13:17:35;12.00;;;4.73;;
20042;SDS011;10182;52.896;6.496;2023-07-02T13:22:37;9.17;;;5.10;;
20042;SDS011;10182;52.896;6.496;2023-07-02T13:27:40;8.27;;;4.73;;
20042;SDS011;10182;52.896;6.496;2023-07-02T13:32:41;10.20;;;5.00;;
20042;SDS011;10182;52.896;6.496;2023-07-02T13:37:43;9.97;;;5.47;;
20042;SDS011;10182;52.896;6.496;2023-07-02T13:42:46;11.27;;;5.07;;
20042;SDS011;10182;52.896;6.496;2023-07-02T13:47:48;13.77;;;5.13;;
20042;SDS011;10182;52.896;6.496;2023-07-02T13:52:49;10.63;;;4.87;;
20042;SDS011;10182;52.896;6.496;2023-07-02T13:57:53;15.93;;;5.50;;
20042;SDS011;10182;52.896;6.496;2023-07-02T14:02:57;8.10;;;4.43;;
20042;SDS011;10182;52.896;6.496;2023-07-02T14:07:59;9.17;;;4.63;;
20042;SDS011;10182;52.896;6.496;2023-07-02T14:13:01;13.20;;;5.60;;
20042;SDS011;10182;52.896;6.496;2023-07-02T14:18:04;9.60;;;5.00;;
20042;SDS011;10182;52.896;6.496;2023-07-02T14:23:06;12.57;;;5.00;;
20042;SDS011;10182;52.896;6.496;2023-07-02T14:28:08;10.83;;;4.87;;
20042;SDS011;10182;52.896;6.496;2023-07-02T14:33:11;8.20;;;4.67;;
20042;SDS011;10182;52.896;6.496;2023-07-02T14:38:13;9.03;;;4.20;;
20042;SDS011;10182;52.896;6.496;2023-07-02T14:43:15;9.97;;;4.50;;
20042;SDS011;10182;52.896;6.496;2023-07-02T14:48:19;12.83;;;4.60;;
20042;SDS011;10182;52.896;6.496;2023-07-02T14:53:22;10.73;;;4.83;;
20042;SDS011;10182;52.896;6.496;2023-07-02T14:58:24;10.70;;;4.40;;
20042;SDS011;10182;52.896;6.496;2023-07-02T15:03:28;10.40;;;5.20;;
20042;SDS011;10182;52.896;6.496;2023-07-02T15:08:31;13.30;;;4.83;;
20042;SDS011;10182;52.896;6.496;2023-07-02T15:13:33;10.33;;;4.63;;
20042;SDS011;10182;52.896;6.496;2023-07-02T15:18:37;9.23;;;4.20;;
20042;SDS011;10182;52.896;6.496;2023-07-02T15:23:39;8.87;;;5.00;;
20042;SDS011;10182;52.896;6.496;2023-07-02T15:28:41;10.00;;;4.60;;
20042;SDS011;10182;52.896;6.496;2023-07-02T15:33:44;11.67;;;8.30;;
20042;SDS011;10182;52.896;6.496;2023-07-02T15:38:46;12.20;;;4.33;;
20042;SDS011;10182;52.896;6.496;2023-07-02T15:43:48;8.77;;;4.50;;
20042;SDS011;10182;52.896;6.496;2023-07-02T15:48:53;8.27;;;4.47;;
20042;SDS011;10182;52.896;6.496;2023-07-02T15:53:55;9.90;;;4.40;;
20042;SDS011;10182;52.896;6.496;2023-07-02T15:58:56;7.80;;;5.20;;
20042;SDS011;10182;52.896;6.496;2023-07-02T16:03:59;10.60;;;3.87;;
20042;SDS011;10182;52.896;6.496;2023-07-02T16:09:02;11.77;;;4.10;;
20042;SDS011;10182;52.896;6.496;2023-07-02T16:14:05;11.10;;;4.97;;
20042;SDS011;10182;52.896;6.496;2023-07-02T16:19:12;12.97;;;5.00;;
20042;SDS011;10182;52.896;6.496;2023-07-02T16:24:16;8.93;;;4.17;;
20042;SDS011;10182;52.896;6.496;2023-07-02T16:29:19;7.57;;;4.37;;
20042;SDS011;10182;52.896;6.496;2023-07-02T16:34:23;7.40;;;5.20;;
20042;SDS011;10182;52.896;6.496;2023-07-02T16:39:26;8.67;;;4.73;;
20042;SDS011;10182;52.896;6.496;2023-07-02T16:44:28;12.83;;;4.63;;
20042;SDS011;10182;52.896;6.496;2023-07-02T16:49:31;6.13;;;4.00;;
20042;SDS011;10182;52.896;6.496;2023-07-02T16:54:33;8.80;;;4.33;;
20042;SDS011;10182;52.896;6.496;2023-07-02T16:59:34;8.93;;;4.40;;
20042;SDS011;10182;52.896;6.496;2023-07-02T17:04:39;7.43;;;4.30;;
20042;SDS011;10182;52.896;6.496;2023-07-02T17:09:40;9.83;;;4.40;;
20042;SDS011;10182;52.896;6.496;2023-07-02T17:14:46;11.90;;;4.97;;
20042;SDS011;10182;52.896;6.496;2023-07-02T17:19:51;11.67;;;4.83;;
20042;SDS011;10182;52.896;6.496;2023-07-02T17:24:54;9.77;;;5.00;;
20042;SDS011;10182;52.896;6.496;2023-07-02T17:30:01;8.23;;;4.83;;
20042;SDS011;10182;52.896;6.496;2023-07-02T17:35:06;11.27;;;5.50;;
20042;SDS011;10182;52.896;6.496;2023-07-02T17:40:13;7.33;;;4.43;;
20042;SDS011;10182;52.896;6.496;2023-07-02T17:45:15;10.67;;;5.80;;
20042;SDS011;10182;52.896;6.496;2023-07-02T17:50:19;8.33;;;4.73;;
20042;SDS011;10182;52.896;6.496;2023-07-02T17:55:20;8.70;;;4.40;;
20042;SDS011;10182;52.896;6.496;2023-07-02T18:00:22;9.27;;;6.00;;
20042;SDS011;10182;52.896;6.496;2023-07-02T18:05:25;9.00;;;4.40;;
20042;SDS011;10182;52.896;6.496;2023-07-02T18:10:27;12.67;;;7.73;;
20042;SDS011;10182;52.896;6.496;2023-07-02T18:15:29;8.30;;;3.90;;
20042;SDS011;10182;52.896;6.496;2023-07-02T18:20:32;7.97;;;4.03;;
20042;SDS011;10182;52.896;6.496;2023-07-02T18:25:33;11.20;;;4.47;;
20042;SDS011;10182;52.896;6.496;2023-07-02T18:30:35;11.33;;;4.60;;
20042;SDS011;10182;52.896;6.496;2023-07-02T18:35:40;8.27;;;4.07;;
20042;SDS011;10182;52.896;6.496;2023-07-02T18:40:42;13.13;;;5.03;;
20042;SDS011;10182;52.896;6.496;2023-07-02T18:45:49;8.03;;;4.70;;
20042;SDS011;10182;52.896;6.496;2023-07-02T18:50:53;9.17;;;4.30;;
20042;SDS011;10182;52.896;6.496;2023-07-02T18:55:55;14.37;;;5.93;;
20042;SDS011;10182;52.896;6.496;2023-07-02T19:00:58;10.33;;;5.53;;
20042;SDS011;10182;52.896;6.496;2023-07-02T19:06:05;10.03;;;5.07;;
20042;SDS011;10182;52.896;6.496;2023-07-02T19:11:08;9.77;;;5.77;;
20042;SDS011;10182;52.896;6.496;2023-07-02T19:16:10;9.97;;;5.63;;
20042;SDS011;10182;52.896;6.496;2023-07-02T19:21:13;14.33;;;4.93;;
20042;SDS011;10182;52.896;6.496;2023-07-02T19:26:18;15.20;;;5.80;;
20042;SDS011;10182;52.896;6.496;2023-07-02T19:31:19;14.03;;;5.97;;
20042;SDS011;10182;52.896;6.496;2023-07-02T19:36:22;12.20;;;5.80;;
20042;SDS011;10182;52.896;6.496;2023-07-02T19:41:24;16.53;;;7.47;;
20042;SDS011;10182;52.896;6.496;2023-07-02T19:46:26;10.87;;;6.40;;
20042;SDS011;10182;52.896;6.496;2023-07-02T19:51:29;13.37;;;6.07;;
20042;SDS011;10182;52.896;6.496;2023-07-02T19:56:31;14.13;;;5.97;;
20042;SDS011;10182;52.896;6.496;2023-07-02T20:01:34;18.07;;;6.33;;
20042;SDS011;10182;52.896;6.496;2023-07-02T20:06:37;11.27;;;5.50;;
20042;SDS011;10182;52.896;6.496;2023-07-02T20:11:38;13.43;;;5.57;;
20042;SDS011;10182;52.896;6.496;2023-07-02T20:16:40;13.60;;;6.20;;
20042;SDS011;10182;52.896;6.496;2023-07-02T20:21:43;13.53;;;7.20;;
20042;SDS011;10182;52.896;6.496;2023-07-02T20:26:45;13.83;;;6.13;;
20042;SDS011;10182;52.896;6.496;2023-07-02T20:31:47;12.43;;;6.40;;
20042;SDS011;10182;52.896;6.496;2023-07-02T20:36:51;10.37;;;6.23;;
20042;SDS011;10182;52.896;6.496;2023-07-02T20:41:53;14.03;;;6.40;;
20042;SDS011;10182;52.896;6.496;2023-07-02T20:46:59;12.83;;;6.30;;
20042;SDS011;10182;52.896;6.496;2023-07-02T20:52:03;14.90;;;6.70;;
20042;SDS011;10182;52.896;6.496;2023-07-02T20:57:05;10.03;;;6.37;;
20042;SDS011;10182;52.896;6.496;2023-07-02T21:02:07;24.30;;;7.50;;
20042;SDS011;10182;52.896;6.496;2023-07-02T21:07:10;14.83;;;6.80;;
20042;SDS011;10182;52.896;6.496;2023-07-02T21:12:12;16.20;;;6.97;;
20042;SDS011;10182;52.896;6.496;2023-07-02T21:17:14;16.57;;;7.07;;
20042;SDS011;10182;52.896;6.496;2023-07-02T21:22:17;15.63;;;7.80;;
20042;SDS011;10182;52.896;6.496;2023-07-02T21:27:19;20.43;;;6.90;;
20042;SDS011;10182;52.896;6.496;2023-07-02T21:32:21;13.80;;;6.47;;
20042;SDS011;10182;52.896;6.496;2023-07-02T21:37:24;20.10;;;7.23;;
20042;SDS011;10182;52.896;6.496;2023-07-02T21:42:26;14.50;;;6.50;;
20042;SDS011;10182;52.896;6.496;2023-07-02T21:47:27;13.60;;;6.90;;
20042;SDS011;10182;52.896;6.496;2023-07-02T21:52:32;15.87;;;6.57;;
20042;SDS011;10182;52.896;6.496;2023-07-02T21:57:33;12.97;;;6.53;;
20042;SDS011;10182;52.896;6.496;2023-07-02T22:02:35;12.50;;;6.13;;
20042;SDS011;10182;52.896;6.496;2023-07-02T22:07:38;15.80;;;6.97;;
20042;SDS011;10182;52.896;6.496;2023-07-02T22:12:40;12.23;;;5.73;;
20042;SDS011;10182;52.896;6.496;2023-07-02T22:17:41;15.87;;;7.30;;
20042;SDS011;10182;52.896;6.496;2023-07-02T22:22:45;17.47;;;7.03;;
20042;SDS011;10182;52.896;6.496;2023-07-02T22:27:47;18.57;;;7.10;;
20042;SDS011;10182;52.896;6.496;2023-07-02T22:32:49;22.13;;;7.03;;
20042;SDS011;10182;52.896;6.496;2023-07-02T22:37:53;13.97;;;6.50;;
20042;SDS011;10182;52.896;6.496;2023-07-02T22:42:55;17.57;;;6.43;;
20042;SDS011;10182;52.896;6.496;2023-07-02T22:47:57;16.43;;;6.67;;
20042;SDS011;10182;52.896;6.496;2023-07-02T22:53:00;16.33;;;7.47;;
20042;SDS011;10182;52.896;6.496;2023-07-02T22:58:02;16.73;;;6.90;;
20042;SDS011;10182;52.896;6.496;2023-07-02T23:03:04;14.73;;;6.33;;
20042;SDS011;10182;52.896;6.496;2023-07-02T23:08:07;21.57;;;6.53;;
20042;SDS011;10182;52.896;6.496;2023-07-02T23:13:09;19.73;;;6.97;;
20042;SDS011;10182;52.896;6.496;2023-07-02T23:18:10;18.60;;;6.87;;
20042;SDS011;10182;52.896;6.496;2023-07-02T23:23:13;17.87;;;6.60;;
20042;SDS011;10182;52.896;6.496;2023-07-02T23:28:16;17.60;;;6.37;;
20042;SDS011;10182;52.896;6.496;2023-07-02T23:33:17;16.40;;;6.33;;
20042;SDS011;10182;52.896;6.496;2023-07-02T23:38:22;21.10;;;6.87;;
20042;SDS011;10182;52.896;6.496;2023-07-02T23:43:24;17.83;;;7.47;;
20042;SDS011;10182;52.896;6.496;2023-07-02T23:48:27;17.63;;;7.23;;
20042;SDS011;10182;52.896;6.496;2023-07-02T23:53:30;19.23;;;7.20;;
20042;SDS011;10182;52.896;6.496;2023-07-02T23:58:31;17.30;;;7.50;;
